Terminal Aerodrome Forecast
Issued by NWS Shreveport, LA

Home | Current Version | Previous Version | Text Only | Print | Product List | Glossary On
Versions: 1 2 3 4 5 6 7 8 9 10 11 12 13 14
000
FTUS44 KSHV 300500
TAFTYR
TAF
KTYR 300539Z 3006/0106 00000KT P6SM FEW070
     FM301500 14007KT P6SM FEW045 SCT070
     FM010000 14005KT P6SM FEW070 BKN250=

USA.gov is the U.S. government's official web portal to all federal, state and local government web resources and services.